Time;durP1;ratioP1;P1;durP2;ratioP2;P2;SDS_P1;SDS_P2;PMS_P1;PMS_P2;Temp;Humidity;BMP_temperature;BMP_pressure;BME280_temperature;BME280_humidity;BME280_pressure;Samples;Min_cycle;Max_cycle;Signal;HPM_P1;HPM_P2
2023/09/14 00:00:08;;;;;;;20.00;16.55;;;;;;;;;;1033612;28;20527;-67
2023/09/14 00:00:43;;;;;;;20.17;16.25;;;;;;;;;;1033216;28;20100;-66
2023/09/14 00:01:30;;;;;;;18.23;14.45;;;;;;;;;;1032607;28;20058;-66
2023/09/14 00:02:01;;;;;;;20.75;14.02;;;;;;;;;;1034044;28;20042;-67
2023/09/14 00:02:32;;;;;;;22.73;14.32;;;;;;;;;;1033022;28;20046;-66
2023/09/14 00:03:03;;;;;;;20.27;14.45;;;;;;;;;;1032343;28;20096;-66
2023/09/14 00:03:33;;;;;;;19.77;14.48;;;;;;;;;;1032961;28;20147;-66
2023/09/14 00:04:04;;;;;;;18.88;15.70;;;;;;;;;;1032261;28;20046;-66
2023/09/14 00:04:34;;;;;;;23.40;15.07;;;;;;;;;;1032025;28;20050;-67
2023/09/14 00:05:06;;;;;;;19.98;15.07;;;;;;;;;;1033357;28;20045;-67
2023/09/14 00:05:40;;;;;;;18.52;15.05;;;;;;;;;;1031805;28;20073;-67
2023/09/14 00:06:11;;;;;;;22.08;15.70;;;;;;;;;;1031659;28;20081;-67
2023/09/14 00:06:41;;;;;;;18.88;16.08;;;;;;;;;;1031968;28;20057;-66
2023/09/14 00:07:12;;;;;;;17.65;15.75;;;;;;;;;;1033473;28;20045;-66
2023/09/14 00:07:43;;;;;;;19.67;16.02;;;;;;;;;;1033453;28;20463;-67
2023/09/14 00:08:13;;;;;;;17.60;15.45;;;;;;;;;;1034171;28;20088;-67
2023/09/14 00:08:44;;;;;;;22.15;15.60;;;;;;;;;;1033089;28;20552;-67
2023/09/14 00:09:14;;;;;;;16.42;14.38;;;;;;;;;;1032572;28;20052;-66
2023/09/14 00:09:45;;;;;;;19.42;14.95;;;;;;;;;;1035588;28;20046;-66
2023/09/14 00:10:15;;;;;;;19.42;15.48;;;;;;;;;;1036675;28;20079;-67
2023/09/14 00:10:53;;;;;;;19.77;16.15;;;;;;;;;;1037694;28;20041;-67
2023/09/14 00:11:24;;;;;;;20.00;15.20;;;;;;;;;;1034593;28;20056;-67
2023/09/14 00:11:55;;;;;;;19.33;15.25;;;;;;;;;;1032126;28;20054;-66
2023/09/14 00:12:25;;;;;;;17.52;15.15;;;;;;;;;;1032398;28;20053;-66
2023/09/14 00:12:56;;;;;;;16.90;14.77;;;;;;;;;;1032186;28;20050;-66
2023/09/14 00:13:26;;;;;;;19.27;15.23;;;;;;;;;;1032344;28;20053;-66
2023/09/14 00:13:57;;;;;;;17.88;15.98;;;;;;;;;;1030600;28;23087;-67
2023/09/14 00:14:28;;;;;;;19.98;16.70;;;;;;;;;;1032852;28;20034;-66
2023/09/14 00:14:58;;;;;;;20.67;15.30;;;;;;;;;;1032540;28;20688;-65
2023/09/14 00:15:29;;;;;;;20.13;16.52;;;;;;;;;;1032752;28;20140;-66
2023/09/14 00:16:00;;;;;;;21.80;16.23;;;;;;;;;;1032181;28;20045;-66
2023/09/14 00:16:31;;;;;;;23.67;16.30;;;;;;;;;;1032271;28;20117;-66
2023/09/14 00:17:01;;;;;;;24.30;17.80;;;;;;;;;;1033525;28;20054;-66
2023/09/14 00:17:32;;;;;;;23.85;17.20;;;;;;;;;;1033125;28;20105;-67
2023/09/14 00:18:03;;;;;;;22.83;17.17;;;;;;;;;;1033491;28;20546;-66
2023/09/14 00:18:33;;;;;;;23.45;17.42;;;;;;;;;;1031595;28;20046;-66
2023/09/14 00:19:04;;;;;;;19.48;16.58;;;;;;;;;;1032955;28;20479;-67
2023/09/14 00:19:34;;;;;;;20.17;16.85;;;;;;;;;;1030552;28;20088;-67
2023/09/14 00:20:06;;;;;;;23.33;17.15;;;;;;;;;;1032529;28;20061;-66
2023/09/14 00:20:37;;;;;;;21.58;16.70;;;;;;;;;;1031001;28;20075;-66
2023/09/14 00:21:08;;;;;;;21.42;17.05;;;;;;;;;;1032609;28;20046;-67
2023/09/14 00:21:42;;;;;;;19.75;16.55;;;;;;;;;;1032982;28;20053;-66
2023/09/14 00:22:12;;;;;;;21.15;16.55;;;;;;;;;;1032332;28;20046;-67
2023/09/14 00:22:43;;;;;;;19.48;16.17;;;;;;;;;;1032240;28;20132;-67
2023/09/14 00:23:13;;;;;;;20.05;16.33;;;;;;;;;;1031891;28;20136;-67
2023/09/14 00:23:43;;;;;;;22.23;16.73;;;;;;;;;;1033687;28;20165;-66
2023/09/14 00:24:14;;;;;;;25.63;17.33;;;;;;;;;;1034465;28;20050;-68
2023/09/14 00:24:45;;;;;;;27.77;18.83;;;;;;;;;;1032688;28;20621;-66
2023/09/14 00:25:15;;;;;;;21.92;16.63;;;;;;;;;;1032496;28;20080;-66
2023/09/14 00:25:47;;;;;;;24.10;18.42;;;;;;;;;;1032126;28;20517;-66
2023/09/14 00:26:17;;;;;;;22.80;18.13;;;;;;;;;;1034236;28;20049;-66
2023/09/14 00:26:48;;;;;;;22.90;18.15;;;;;;;;;;1028258;28;21489;-66
2023/09/14 00:27:18;;;;;;;21.52;17.48;;;;;;;;;;1032825;28;20486;-67
2023/09/14 00:27:51;;;;;;;24.58;18.48;;;;;;;;;;1031549;28;20056;-66
2023/09/14 00:28:21;;;;;;;28.67;17.77;;;;;;;;;;1035013;28;20073;-67
2023/09/14 00:28:52;;;;;;;25.35;18.10;;;;;;;;;;1031141;28;20863;-67
2023/09/14 00:29:23;;;;;;;26.30;19.85;;;;;;;;;;1032282;28;20747;-66
2023/09/14 00:29:53;;;;;;;26.95;19.33;;;;;;;;;;1029811;28;20878;-66
2023/09/14 00:30:24;;;;;;;25.90;20.25;;;;;;;;;;1031953;28;20131;-67
2023/09/14 00:30:55;;;;;;;26.52;17.65;;;;;;;;;;1031182;28;20777;-67
2023/09/14 00:31:26;;;;;;;25.80;18.70;;;;;;;;;;1032844;28;20092;-66
2023/09/14 00:31:56;;;;;;;22.75;18.88;;;;;;;;;;1032029;28;20058;-66
2023/09/14 00:32:27;;;;;;;22.25;16.83;;;;;;;;;;1033476;28;20137;-66
2023/09/14 00:32:58;;;;;;;24.55;18.92;;;;;;;;;;1033392;28;20260;-66
2023/09/14 00:33:28;;;;;;;21.67;17.15;;;;;;;;;;1031821;28;20473;-66
2023/09/14 00:33:59;;;;;;;23.77;18.60;;;;;;;;;;1033058;28;20065;-66
2023/09/14 00:34:30;;;;;;;22.67;18.45;;;;;;;;;;1030747;28;20050;-66
2023/09/14 00:35:00;;;;;;;24.92;18.92;;;;;;;;;;1032800;28;20046;-66
2023/09/14 00:35:31;;;;;;;24.05;18.80;;;;;;;;;;1033141;28;20042;-67
2023/09/14 00:36:01;;;;;;;23.48;17.75;;;;;;;;;;1034004;28;20465;-67
2023/09/14 00:36:32;;;;;;;21.52;18.45;;;;;;;;;;1032154;28;20083;-67
2023/09/14 00:37:04;;;;;;;26.63;19.52;;;;;;;;;;1030968;28;20826;-67
2023/09/14 00:37:35;;;;;;;25.80;18.65;;;;;;;;;;1030784;28;20081;-66
2023/09/14 00:38:05;;;;;;;26.95;19.50;;;;;;;;;;1032221;28;20053;-66
2023/09/14 00:38:36;;;;;;;24.13;19.55;;;;;;;;;;1033324;28;20049;-65
2023/09/14 00:39:09;;;;;;;23.42;19.27;;;;;;;;;;1034155;28;20494;-67
2023/09/14 00:39:40;;;;;;;21.77;17.90;;;;;;;;;;1031488;28;20127;-66
2023/09/14 00:40:12;;;;;;;26.33;19.67;;;;;;;;;;1033342;28;20057;-66
2023/09/14 00:40:43;;;;;;;28.02;19.00;;;;;;;;;;1032934;28;20308;-66
2023/09/14 00:41:13;;;;;;;25.02;18.77;;;;;;;;;;1031393;28;20553;-66
2023/09/14 00:41:44;;;;;;;25.17;18.35;;;;;;;;;;1030803;28;20050;-67
2023/09/14 00:42:14;;;;;;;23.50;19.30;;;;;;;;;;1030462;28;20038;-65
2023/09/14 00:42:47;;;;;;;27.95;19.85;;;;;;;;;;1033055;28;20053;-66
2023/09/14 00:43:19;;;;;;;26.63;19.77;;;;;;;;;;1032864;28;20073;-67
2023/09/14 00:43:49;;;;;;;25.20;18.00;;;;;;;;;;1030195;28;20054;-66
2023/09/14 00:44:20;;;;;;;29.20;19.23;;;;;;;;;;1031461;28;20050;-66
2023/09/14 00:44:51;;;;;;;26.80;19.23;;;;;;;;;;1030489;28;20050;-66
2023/09/14 00:45:22;;;;;;;27.80;19.65;;;;;;;;;;1032360;28;20048;-66
2023/09/14 00:45:53;;;;;;;27.70;18.45;;;;;;;;;;1033150;28;20056;-66
2023/09/14 00:46:24;;;;;;;24.98;20.73;;;;;;;;;;1032636;28;20050;-66
2023/09/14 00:46:54;;;;;;;28.67;20.08;;;;;;;;;;1034074;28;20056;-66
2023/09/14 00:47:25;;;;;;;32.55;19.88;;;;;;;;;;1031605;28;20053;-66
2023/09/14 00:47:57;;;;;;;25.80;18.45;;;;;;;;;;1032530;28;20054;-67
2023/09/14 00:48:28;;;;;;;24.55;17.58;;;;;;;;;;1032164;28;20046;-67
2023/09/14 00:49:01;;;;;;;22.38;17.27;;;;;;;;;;1030996;28;20053;-66
2023/09/14 00:49:31;;;;;;;22.58;18.27;;;;;;;;;;1031887;28;20080;-67
2023/09/14 00:50:04;;;;;;;21.00;17.88;;;;;;;;;;1031869;28;20042;-67
2023/09/14 00:50:34;;;;;;;23.02;17.15;;;;;;;;;;1032492;28;20050;-68
2023/09/14 00:51:06;;;;;;;27.63;17.98;;;;;;;;;;1033465;28;20100;-66
2023/09/14 00:51:37;;;;;;;21.73;16.73;;;;;;;;;;1030845;28;20050;-66
2023/09/14 00:52:10;;;;;;;21.92;16.60;;;;;;;;;;1034421;28;20534;-67
2023/09/14 00:52:42;;;;;;;26.30;16.73;;;;;;;;;;1032142;28;20050;-66
2023/09/14 00:53:15;;;;;;;21.50;17.75;;;;;;;;;;1032452;28;20049;-65
2023/09/14 00:53:47;;;;;;;21.33;17.15;;;;;;;;;;1031785;28;20042;-66
2023/09/14 00:54:18;;;;;;;28.83;17.73;;;;;;;;;;1033653;28;20407;-66
2023/09/14 00:54:48;;;;;;;21.35;17.17;;;;;;;;;;1032480;28;20960;-66
2023/09/14 00:55:19;;;;;;;23.92;17.92;;;;;;;;;;1033210;28;20057;-67
2023/09/14 00:55:50;;;;;;;23.65;17.30;;;;;;;;;;1032968;28;20161;-66
2023/09/14 00:56:21;;;;;;;30.05;18.95;;;;;;;;;;1031937;28;20429;-67
2023/09/14 00:56:51;;;;;;;21.95;18.35;;;;;;;;;;1033543;28;20438;-66
2023/09/14 00:57:22;;;;;;;24.73;17.95;;;;;;;;;;1032748;28;20115;-67
2023/09/14 00:57:54;;;;;;;25.88;17.63;;;;;;;;;;1032285;28;20049;-67
2023/09/14 00:58:25;;;;;;;23.45;17.98;;;;;;;;;;1033495;28;20096;-66
2023/09/14 00:58:55;;;;;;;26.02;17.92;;;;;;;;;;1030421;28;20137;-66
2023/09/14 00:59:26;;;;;;;23.17;17.60;;;;;;;;;;1032862;28;20050;-66
2023/09/14 00:59:56;;;;;;;24.40;17.35;;;;;;;;;;1032352;28;20054;-67
2023/09/14 01:00:27;;;;;;;26.88;19.00;;;;;;;;;;1032752;28;20041;-67
2023/09/14 01:00:59;;;;;;;20.27;17.42;;;;;;;;;;1032708;28;20056;-67
2023/09/14 01:01:31;;;;;;;19.77;17.33;;;;;;;;;;1032694;28;20112;-65
2023/09/14 01:02:03;;;;;;;23.02;16.98;;;;;;;;;;1033259;28;20042;-66
2023/09/14 01:02:34;;;;;;;23.35;18.35;;;;;;;;;;1031919;28;20639;-67
2023/09/14 01:03:04;;;;;;;25.23;18.25;;;;;;;;;;1031409;28;20557;-66
2023/09/14 01:03:35;;;;;;;20.08;17.17;;;;;;;;;;1032251;28;20125;-65
2023/09/14 01:04:06;;;;;;;23.45;18.38;;;;;;;;;;1033505;28;20164;-66
2023/09/14 01:04:37;;;;;;;21.88;17.38;;;;;;;;;;1033869;28;20060;-68
2023/09/14 01:05:08;;;;;;;22.85;17.45;;;;;;;;;;1032833;28;20702;-66
2023/09/14 01:05:40;;;;;;;24.25;17.58;;;;;;;;;;1032433;28;20953;-66
2023/09/14 01:06:11;;;;;;;23.55;17.92;;;;;;;;;;1032870;28;20050;-66
2023/09/14 01:06:42;;;;;;;20.30;16.63;;;;;;;;;;1032015;28;20042;-67
2023/09/14 01:07:15;;;;;;;23.17;17.92;;;;;;;;;;1033892;28;20406;-66
2023/09/14 01:07:45;;;;;;;25.50;18.23;;;;;;;;;;1031842;28;20050;-66
2023/09/14 01:08:16;;;;;;;27.65;17.83;;;;;;;;;;1033099;28;20088;-68
2023/09/14 01:08:46;;;;;;;21.13;16.63;;;;;;;;;;1033337;28;20149;-66
2023/09/14 01:09:17;;;;;;;23.65;17.38;;;;;;;;;;1033018;28;20073;-66
2023/09/14 01:09:47;;;;;;;21.77;17.45;;;;;;;;;;1031882;28;20050;-67
2023/09/14 01:10:18;;;;;;;22.83;17.77;;;;;;;;;;1034340;28;20053;-66
2023/09/14 01:10:48;;;;;;;23.17;17.60;;;;;;;;;;1032718;28;20054;-67
2023/09/14 01:11:19;;;;;;;23.23;16.75;;;;;;;;;;1032484;28;20103;-67
2023/09/14 01:11:50;;;;;;;22.30;16.48;;;;;;;;;;1032831;28;20123;-67
2023/09/14 01:12:20;;;;;;;20.02;17.20;;;;;;;;;;1032163;28;20053;-66
2023/09/14 01:12:51;;;;;;;25.42;18.30;;;;;;;;;;1031475;28;20128;-67
2023/09/14 01:13:34;;;;;;;23.05;17.25;;;;;;;;;;1033302;28;20505;-65
2023/09/14 01:14:13;;;;;;;23.50;17.83;;;;;;;;;;1030634;28;20056;-67
2023/09/14 01:14:56;;;;;;;24.00;17.15;;;;;;;;;;1029126;28;20509;-67
2023/09/14 01:15:38;;;;;;;22.42;17.23;;;;;;;;;;1029166;28;20050;-67
2023/09/14 01:16:15;;;;;;;22.10;17.05;;;;;;;;;;1028752;28;20069;-66
2023/09/14 01:16:55;;;;;;;23.63;16.58;;;;;;;;;;1028681;28;20498;-66
2023/09/14 01:17:34;;;;;;;21.80;17.48;;;;;;;;;;1028562;28;20062;-66
2023/09/14 01:18:29;;;;;;;22.75;17.60;;;;;;;;;;1026039;28;20553;-66
2023/09/14 01:19:24;;;;;;;24.48;16.95;;;;;;;;;;1028737;28;20054;-67
2023/09/14 01:20:11;;;;;;;20.60;16.48;;;;;;;;;;1027931;28;20054;-66
2023/09/14 01:21:35;;;;;;;21.60;16.83;;;;;;;;;;1028895;28;20057;-67
2023/09/14 01:22:14;;;;;;;23.92;17.30;;;;;;;;;;1027021;28;20077;-66
2023/09/14 01:22:54;;;;;;;20.63;16.38;;;;;;;;;;1027207;28;20188;-66
2023/09/14 01:23:41;;;;;;;23.63;17.75;;;;;;;;;;1027610;28;20050;-66
2023/09/14 01:24:43;;;;;;;22.17;17.33;;;;;;;;;;1032031;28;20050;-66
2023/09/14 01:25:19;;;;;;;24.95;17.52;;;;;;;;;;1028289;28;20582;-67
2023/09/14 01:25:52;;;;;;;21.80;16.48;;;;;;;;;;1028797;28;20054;-65
2023/09/14 01:26:23;;;;;;;19.38;16.75;;;;;;;;;;1028778;28;20066;-66
2023/09/14 01:26:55;;;;;;;22.98;17.77;;;;;;;;;;1028702;28;20161;-67
2023/09/14 01:27:26;;;;;;;23.15;18.10;;;;;;;;;;1022675;28;20581;-66
2023/09/14 01:28:10;;;;;;;24.20;18.25;;;;;;;;;;1035142;28;20900;-66
2023/09/14 01:28:40;;;;;;;26.23;17.73;;;;;;;;;;1035723;28;20049;-67
2023/09/14 01:29:11;;;;;;;28.27;19.08;;;;;;;;;;1033473;28;20045;-67
2023/09/14 01:29:41;;;;;;;24.83;17.50;;;;;;;;;;1029742;28;20042;-66
2023/09/14 01:30:12;;;;;;;29.05;18.77;;;;;;;;;;1032859;28;20054;-66
2023/09/14 01:30:42;;;;;;;23.90;18.10;;;;;;;;;;1032021;28;20784;-66
2023/09/14 01:31:13;;;;;;;25.98;19.00;;;;;;;;;;1032477;28;20124;-67
2023/09/14 01:31:43;;;;;;;29.42;19.42;;;;;;;;;;1032683;28;20510;-67
2023/09/14 01:32:14;;;;;;;30.67;19.08;;;;;;;;;;1032804;28;20133;-66
2023/09/14 01:32:45;;;;;;;22.95;18.13;;;;;;;;;;1031425;28;20057;-67
2023/09/14 01:33:17;;;;;;;24.23;19.60;;;;;;;;;;1030220;28;20089;-67
2023/09/14 01:33:48;;;;;;;27.70;18.05;;;;;;;;;;1033144;28;20074;-66
2023/09/14 01:34:18;;;;;;;27.60;18.02;;;;;;;;;;1032492;28;20046;-66
2023/09/14 01:34:49;;;;;;;25.80;18.77;;;;;;;;;;1033416;28;20418;-67
2023/09/14 01:35:20;;;;;;;27.58;19.10;;;;;;;;;;1032604;28;20050;-66
2023/09/14 01:36:08;;;;;;;23.88;18.20;;;;;;;;;;1031997;28;20045;-67
2023/09/14 01:36:50;;;;;;;21.35;17.92;;;;;;;;;;1032793;28;20089;-66
2023/09/14 01:37:22;;;;;;;21.92;17.27;;;;;;;;;;1033105;28;20046;-67
2023/09/14 01:37:55;;;;;;;23.80;17.48;;;;;;;;;;1034096;28;20089;-66
2023/09/14 01:38:27;;;;;;;26.85;18.77;;;;;;;;;;1032596;28;20073;-66
2023/09/14 01:38:59;;;;;;;27.08;18.58;;;;;;;;;;1033650;28;20049;-66
2023/09/14 01:39:32;;;;;;;24.55;19.10;;;;;;;;;;1032978;28;20054;-67
2023/09/14 01:40:08;;;;;;;26.67;19.85;;;;;;;;;;1033110;28;20065;-66
2023/09/14 01:40:40;;;;;;;26.00;18.52;;;;;;;;;;1033842;28;20046;-67
2023/09/14 01:41:12;;;;;;;26.13;17.70;;;;;;;;;;1034566;28;20060;-66
2023/09/14 01:41:43;;;;;;;20.88;17.05;;;;;;;;;;1031864;28;20396;-67
2023/09/14 01:42:14;;;;;;;22.85;17.33;;;;;;;;;;1033882;28;20418;-67
2023/09/14 01:42:45;;;;;;;20.08;16.83;;;;;;;;;;1032622;28;20057;-66
2023/09/14 01:43:16;;;;;;;22.30;17.23;;;;;;;;;;1035116;28;20528;-66
2023/09/14 01:43:49;;;;;;;20.02;15.55;;;;;;;;;;1033592;28;20056;-67
2023/09/14 01:44:19;;;;;;;19.85;15.70;;;;;;;;;;1033048;28;20152;-67
2023/09/14 01:44:50;;;;;;;25.83;17.48;;;;;;;;;;1034086;28;20104;-66
2023/09/14 01:45:21;;;;;;;27.58;18.27;;;;;;;;;;1033406;28;20434;-67
2023/09/14 01:45:52;;;;;;;23.58;17.23;;;;;;;;;;1034253;28;20112;-66
2023/09/14 01:46:24;;;;;;;25.17;18.13;;;;;;;;;;1032925;28;20046;-66
2023/09/14 01:46:56;;;;;;;24.00;17.88;;;;;;;;;;1034172;28;20050;-67
2023/09/14 01:47:26;;;;;;;23.20;17.08;;;;;;;;;;1034444;28;22239;-66
2023/09/14 01:47:57;;;;;;;22.67;18.42;;;;;;;;;;1034657;28;21088;-66
2023/09/14 01:48:29;;;;;;;25.92;17.67;;;;;;;;;;1033049;28;20138;-66
2023/09/14 01:48:59;;;;;;;29.67;18.17;;;;;;;;;;1034473;28;20049;-67
2023/09/14 01:49:30;;;;;;;31.17;18.05;;;;;;;;;;1032611;28;20046;-68
2023/09/14 01:50:01;;;;;;;22.35;17.25;;;;;;;;;;1033652;28;20077;-66
2023/09/14 01:50:31;;;;;;;22.95;17.65;;;;;;;;;;1035191;28;20061;-66
2023/09/14 01:51:02;;;;;;;27.88;18.45;;;;;;;;;;1034377;28;20403;-67
2023/09/14 01:51:32;;;;;;;23.88;18.35;;;;;;;;;;1033818;28;20112;-67
2023/09/14 01:52:03;;;;;;;22.98;18.75;;;;;;;;;;1033038;28;20038;-67
2023/09/14 01:52:33;;;;;;;24.23;17.95;;;;;;;;;;1034455;28;20424;-68
2023/09/14 01:53:04;;;;;;;26.05;19.05;;;;;;;;;;1033866;28;20564;-66
2023/09/14 01:53:35;;;;;;;22.55;17.45;;;;;;;;;;1033397;28;20555;-66
2023/09/14 01:54:06;;;;;;;23.88;17.65;;;;;;;;;;1033969;28;20046;-67
2023/09/14 01:54:36;;;;;;;22.77;17.58;;;;;;;;;;1033958;28;20060;-66
2023/09/14 01:55:07;;;;;;;23.83;17.95;;;;;;;;;;1032043;28;20050;-67
2023/09/14 01:55:38;;;;;;;22.50;17.27;;;;;;;;;;1033794;28;20437;-67
2023/09/14 01:56:08;;;;;;;24.60;18.17;;;;;;;;;;1038855;28;20053;-66
2023/09/14 01:56:40;;;;;;;22.40;17.63;;;;;;;;;;1037779;28;20037;-66
2023/09/14 01:57:10;;;;;;;21.75;17.13;;;;;;;;;;1037278;28;20152;-67
2023/09/14 01:57:41;;;;;;;25.35;16.60;;;;;;;;;;1037528;28;20139;-67
2023/09/14 01:58:12;;;;;;;26.13;17.27;;;;;;;;;;1034430;28;20038;-66
2023/09/14 01:58:42;;;;;;;25.45;16.40;;;;;;;;;;1033546;28;20046;-66
2023/09/14 01:59:13;;;;;;;22.83;16.77;;;;;;;;;;1032940;28;20451;-67
2023/09/14 01:59:43;;;;;;;26.05;17.50;;;;;;;;;;1032593;28;20045;-66
2023/09/14 02:00:15;;;;;;;28.02;17.90;;;;;;;;;;1032717;28;20054;-67
2023/09/14 02:00:45;;;;;;;24.23;17.25;;;;;;;;;;1032180;28;20107;-68
2023/09/14 02:01:16;;;;;;;24.15;18.00;;;;;;;;;;1033379;28;20096;-66
2023/09/14 02:01:46;;;;;;;22.77;18.15;;;;;;;;;;1034092;28;20533;-67
2023/09/14 02:02:17;;;;;;;25.88;17.83;;;;;;;;;;1034847;28;20066;-66
2023/09/14 02:02:47;;;;;;;24.15;18.02;;;;;;;;;;1032808;28;20872;-65
2023/09/14 02:03:18;;;;;;;22.23;18.02;;;;;;;;;;1034038;28;20100;-65
2023/09/14 02:03:49;;;;;;;22.50;17.65;;;;;;;;;;1033037;28;20053;-67
2023/09/14 02:04:19;;;;;;;22.35;16.98;;;;;;;;;;1033187;28;20050;-66
2023/09/14 02:04:49;;;;;;;24.52;17.58;;;;;;;;;;1033717;28;20065;-67
2023/09/14 02:05:20;;;;;;;24.95;18.45;;;;;;;;;;1033272;28;20054;-68
2023/09/14 02:05:58;;;;;;;21.52;17.60;;;;;;;;;;1033052;28;20068;-67
2023/09/14 02:06:29;;;;;;;20.98;16.88;;;;;;;;;;1033819;28;20053;-66
2023/09/14 02:07:00;;;;;;;23.23;16.80;;;;;;;;;;1032961;28;20060;-67
2023/09/14 02:07:30;;;;;;;21.52;16.95;;;;;;;;;;1031827;28;20053;-66
2023/09/14 02:08:01;;;;;;;20.25;16.27;;;;;;;;;;1031442;28;20164;-66
2023/09/14 02:08:31;;;;;;;22.25;15.60;;;;;;;;;;1033770;28;20072;-67
2023/09/14 02:09:03;;;;;;;21.90;15.85;;;;;;;;;;1033143;28;20509;-66
2023/09/14 02:09:33;;;;;;;19.08;15.15;;;;;;;;;;1031536;28;20168;-66
2023/09/14 02:10:04;;;;;;;19.55;15.07;;;;;;;;;;1034084;28;20058;-67
2023/09/14 02:10:35;;;;;;;21.42;16.25;;;;;;;;;;1034020;28;20046;-66
2023/09/14 02:11:05;;;;;;;20.42;16.55;;;;;;;;;;1032755;28;20038;-67
2023/09/14 02:11:36;;;;;;;21.60;17.05;;;;;;;;;;1033975;28;20054;-67
2023/09/14 02:12:06;;;;;;;22.20;16.63;;;;;;;;;;1034920;28;20057;-67
2023/09/14 02:12:37;;;;;;;19.95;16.58;;;;;;;;;;1032909;28;20050;-66
2023/09/14 02:13:07;;;;;;;19.75;15.95;;;;;;;;;;1033462;28;20052;-67
2023/09/14 02:13:38;;;;;;;19.45;15.77;;;;;;;;;;1031439;28;20050;-66
2023/09/14 02:14:08;;;;;;;18.95;15.45;;;;;;;;;;1033848;28;20062;-67
2023/09/14 02:14:39;;;;;;;17.55;15.13;;;;;;;;;;1034375;28;20049;-66
2023/09/14 02:15:10;;;;;;;20.85;16.45;;;;;;;;;;1032485;28;20070;-67
2023/09/14 02:15:40;;;;;;;22.92;16.30;;;;;;;;;;1032557;28;20452;-66
2023/09/14 02:16:11;;;;;;;28.30;17.00;;;;;;;;;;1030885;28;20512;-66
2023/09/14 02:16:41;;;;;;;24.20;15.90;;;;;;;;;;1033054;28;20045;-66
2023/09/14 02:17:12;;;;;;;19.85;15.93;;;;;;;;;;1030970;28;20060;-66
2023/09/14 02:17:43;;;;;;;25.23;16.52;;;;;;;;;;1033141;28;20129;-67
2023/09/14 02:18:13;;;;;;;19.63;15.07;;;;;;;;;;1033573;28;20077;-66
2023/09/14 02:18:44;;;;;;;20.27;15.82;;;;;;;;;;1034391;28;20573;-67
2023/09/14 02:19:15;;;;;;;19.92;15.70;;;;;;;;;;1030665;28;20050;-66
2023/09/14 02:19:45;;;;;;;20.92;16.48;;;;;;;;;;1033232;28;20144;-66
2023/09/14 02:20:16;;;;;;;21.02;16.25;;;;;;;;;;1034049;28;20588;-66
2023/09/14 02:20:46;;;;;;;20.52;15.95;;;;;;;;;;1034501;28;20054;-65
2023/09/14 02:21:17;;;;;;;22.25;16.45;;;;;;;;;;1032337;28;20042;-66
2023/09/14 02:21:47;;;;;;;19.30;15.20;;;;;;;;;;1032562;28;21105;-66
2023/09/14 02:22:18;;;;;;;27.33;16.10;;;;;;;;;;1031831;28;20050;-66
2023/09/14 02:22:48;;;;;;;19.58;15.15;;;;;;;;;;1034459;28;20053;-66
2023/09/14 02:23:19;;;;;;;23.88;15.98;;;;;;;;;;1032074;28;20124;-66
2023/09/14 02:23:49;;;;;;;27.27;15.27;;;;;;;;;;1031964;28;20450;-68
2023/09/14 02:24:20;;;;;;;19.33;16.00;;;;;;;;;;1033169;28;20065;-66
2023/09/14 02:24:51;;;;;;;21.27;16.17;;;;;;;;;;1033297;28;20106;-66
2023/09/14 02:25:21;;;;;;;19.35;16.45;;;;;;;;;;1030124;28;20053;-66
2023/09/14 02:25:52;;;;;;;23.17;16.27;;;;;;;;;;1031097;28;20064;-66
2023/09/14 02:26:22;;;;;;;20.67;15.70;;;;;;;;;;1034343;28;20493;-66
2023/09/14 02:26:54;;;;;;;20.75;17.33;;;;;;;;;;1033171;28;20980;-66
2023/09/14 02:27:24;;;;;;;22.98;16.25;;;;;;;;;;1034943;28;20044;-67
2023/09/14 02:27:55;;;;;;;22.50;18.10;;;;;;;;;;1032714;28;20061;-66
2023/09/14 02:28:25;;;;;;;20.70;15.98;;;;;;;;;;1034557;28;20506;-66
2023/09/14 02:28:56;;;;;;;21.90;17.17;;;;;;;;;;1032276;28;20057;-67
2023/09/14 02:29:26;;;;;;;24.20;17.23;;;;;;;;;;1031163;28;20049;-66
2023/09/14 02:29:57;;;;;;;21.65;17.48;;;;;;;;;;1032968;28;20054;-65
2023/09/14 02:30:27;;;;;;;21.98;16.88;;;;;;;;;;1032655;28;20217;-66
2023/09/14 02:30:58;;;;;;;22.95;17.65;;;;;;;;;;1031956;28;20050;-67
2023/09/14 02:31:28;;;;;;;20.70;17.55;;;;;;;;;;1032618;28;20050;-66
2023/09/14 02:31:59;;;;;;;22.05;17.63;;;;;;;;;;1033327;28;20383;-67
2023/09/14 02:32:30;;;;;;;19.45;16.25;;;;;;;;;;1033046;28;20148;-66
2023/09/14 02:33:00;;;;;;;26.80;15.35;;;;;;;;;;1032472;28;20120;-67
2023/09/14 02:33:31;;;;;;;22.48;16.45;;;;;;;;;;1033941;28;20050;-67
2023/09/14 02:34:01;;;;;;;24.52;15.85;;;;;;;;;;1032426;28;20407;-66
2023/09/14 02:34:32;;;;;;;20.52;14.88;;;;;;;;;;1034381;28;20133;-67
2023/09/14 02:35:03;;;;;;;22.58;15.90;;;;;;;;;;1033975;28;20042;-67
2023/09/14 02:35:38;;;;;;;19.50;15.82;;;;;;;;;;1033167;28;20050;-65
2023/09/14 02:36:09;;;;;;;23.77;17.52;;;;;;;;;;1031354;28;20062;-67
2023/09/14 02:36:39;;;;;;;19.70;16.67;;;;;;;;;;1032607;28;20046;-68
2023/09/14 02:37:10;;;;;;;20.80;17.08;;;;;;;;;;1031660;28;20058;-66
2023/09/14 02:37:40;;;;;;;22.30;16.75;;;;;;;;;;1033272;28;20502;-66
2023/09/14 02:38:11;;;;;;;23.25;16.48;;;;;;;;;;1034666;28;20076;-66
2023/09/14 02:38:43;;;;;;;21.88;17.23;;;;;;;;;;1031941;28;20447;-67
2023/09/14 02:39:14;;;;;;;18.95;15.65;;;;;;;;;;1032651;28;20054;-67
2023/09/14 02:39:44;;;;;;;22.65;17.10;;;;;;;;;;1033389;28;20054;-66
2023/09/14 02:40:15;;;;;;;25.33;15.85;;;;;;;;;;1033863;28;20038;-67
2023/09/14 02:40:45;;;;;;;23.10;17.75;;;;;;;;;;1032371;28;20050;-66
2023/09/14 02:41:17;;;;;;;23.75;17.33;;;;;;;;;;1036852;28;20052;-67
2023/09/14 02:41:48;;;;;;;24.63;17.25;;;;;;;;;;1037637;28;20709;-66
2023/09/14 02:42:18;;;;;;;20.95;16.05;;;;;;;;;;1038408;28;20516;-67
2023/09/14 02:42:49;;;;;;;18.98;16.85;;;;;;;;;;1037210;28;20049;-66
2023/09/14 02:43:19;;;;;;;22.20;16.80;;;;;;;;;;1037815;28;20505;-66
2023/09/14 02:43:50;;;;;;;19.90;17.02;;;;;;;;;;1036666;28;20053;-66
2023/09/14 02:44:20;;;;;;;20.25;14.95;;;;;;;;;;1034504;28;20054;-67
2023/09/14 02:44:51;;;;;;;22.75;16.40;;;;;;;;;;1033968;28;20595;-66
2023/09/14 02:45:21;;;;;;;22.52;16.73;;;;;;;;;;1031733;28;20053;-67
2023/09/14 02:45:52;;;;;;;22.00;15.82;;;;;;;;;;1032438;28;20050;-67
2023/09/14 02:46:22;;;;;;;20.10;15.70;;;;;;;;;;1034064;28;20467;-68
2023/09/14 02:46:53;;;;;;;20.27;16.58;;;;;;;;;;1033069;28;20054;-66
2023/09/14 02:47:24;;;;;;;19.77;15.43;;;;;;;;;;1033592;28;20632;-68
2023/09/14 02:47:54;;;;;;;23.35;15.70;;;;;;;;;;1032257;28;20054;-67
2023/09/14 02:48:24;;;;;;;18.35;15.10;;;;;;;;;;1033848;28;20516;-65
2023/09/14 02:48:55;;;;;;;21.80;15.80;;;;;;;;;;1032886;28;20046;-67
2023/09/14 02:49:25;;;;;;;19.90;15.38;;;;;;;;;;1031144;28;20054;-66
2023/09/14 02:49:56;;;;;;;22.02;15.27;;;;;;;;;;1033343;28;20058;-67
2023/09/14 02:50:27;;;;;;;19.33;14.32;;;;;;;;;;1033545;28;20486;-66
2023/09/14 02:50:57;;;;;;;18.83;15.57;;;;;;;;;;1032676;28;20080;-66
2023/09/14 02:51:28;;;;;;;23.58;16.10;;;;;;;;;;1033670;28;20046;-66
2023/09/14 02:51:59;;;;;;;19.38;15.57;;;;;;;;;;1034421;28;20115;-68
2023/09/14 02:52:29;;;;;;;22.92;15.35;;;;;;;;;;1033670;28;20070;-66
2023/09/14 02:53:00;;;;;;;21.40;15.77;;;;;;;;;;1033620;28;20054;-67
2023/09/14 02:53:30;;;;;;;19.27;14.95;;;;;;;;;;1031816;28;20080;-67
2023/09/14 02:54:01;;;;;;;20.38;15.57;;;;;;;;;;1033946;28;20069;-68
2023/09/14 02:54:31;;;;;;;17.77;15.20;;;;;;;;;;1033022;28;20066;-66
2023/09/14 02:55:02;;;;;;;18.55;15.32;;;;;;;;;;1032592;28;20191;-67
2023/09/14 02:55:34;;;;;;;21.88;15.90;;;;;;;;;;1031693;28;20589;-67
2023/09/14 02:56:11;;;;;;;20.25;15.15;;;;;;;;;;1034297;28;20054;-66
2023/09/14 02:56:42;;;;;;;20.38;15.20;;;;;;;;;;1034276;28;22062;-68
2023/09/14 02:57:12;;;;;;;19.88;14.10;;;;;;;;;;1031522;28;20550;-66
2023/09/14 02:57:43;;;;;;;16.40;14.48;;;;;;;;;;1032743;28;20148;-67
2023/09/14 02:58:13;;;;;;;19.52;14.65;;;;;;;;;;1033753;28;20057;-65
2023/09/14 02:58:44;;;;;;;17.27;15.15;;;;;;;;;;1034041;28;20536;-66
2023/09/14 02:59:17;;;;;;;16.40;14.70;;;;;;;;;;1032648;28;20141;-67
2023/09/14 02:59:48;;;;;;;19.25;13.98;;;;;;;;;;1033952;28;20049;-66
2023/09/14 03:00:19;;;;;;;23.20;15.15;;;;;;;;;;1032704;28;20054;-67
2023/09/14 03:00:49;;;;;;;19.92;14.68;;;;;;;;;;1034430;28;20105;-66
2023/09/14 03:01:20;;;;;;;16.90;13.52;;;;;;;;;;1031478;28;20073;-67
2023/09/14 03:01:51;;;;;;;16.00;13.45;;;;;;;;;;1034101;28;20550;-67
2023/09/14 03:02:22;;;;;;;18.73;13.30;;;;;;;;;;1033523;28;20058;-68
2023/09/14 03:02:53;;;;;;;19.55;13.52;;;;;;;;;;1033115;28;20053;-66
2023/09/14 03:03:23;;;;;;;21.73;14.35;;;;;;;;;;1032484;28;20041;-68
2023/09/14 03:03:54;;;;;;;17.40;12.82;;;;;;;;;;1034379;28;20128;-66
2023/09/14 03:04:24;;;;;;;18.23;13.82;;;;;;;;;;1032868;28;20050;-67
2023/09/14 03:04:55;;;;;;;16.55;13.27;;;;;;;;;;1030770;28;20071;-67